OAL883 LGKF-LDDU
Flight info
| Callsign | OAL883 |
|---|---|
| Flight time | 1h 5m |
| Altitude | 38000 |
| Route | ROTSA UA14 KRK UL53 OLGAT DCT BEVIS |
| Aircraft | A319/M-SDE3FGHIRWY/LB1 |
Departure
| Time | 2026-05-07 18:44 |
|---|---|
| Airport | Kefallinia Airport (LGKF) |
Arrival
| Time | 2026-05-07 19:50 |
|---|---|
| Airport | Dubrovnik Ruđer Bošković Airport (LDDU) |
| Time | Latitude | Longitude | Altitude | Speed | Heading |
|---|---|---|---|---|---|
| 2026-05-07 18:31 | 38.11912 | 20.50415 | 68 ft | 0 kts | 56° |
| 2026-05-07 18:39 | 38.11913 | 20.50420 | 63 ft | 2 kts | 72° |
| 2026-05-07 18:39 | 38.11907 | 20.50434 | 66 ft | 2 kts | 130° |
| 2026-05-07 18:40 | 38.11886 | 20.50417 | 64 ft | 7 kts | 251° |
| 2026-05-07 18:40 | 38.11870 | 20.50345 | 62 ft | 10 kts | 280° |
| 2026-05-07 18:40 | 38.11896 | 20.50277 | 68 ft | 8 kts | 278° |
| 2026-05-07 18:40 | 38.11892 | 20.50206 | 68 ft | 10 kts | 263° |
| 2026-05-07 18:41 | 38.11922 | 20.50117 | 68 ft | 14 kts | 323° |
| 2026-05-07 18:41 | 38.12022 | 20.50032 | 66 ft | 21 kts | 326° |
| 2026-05-07 18:41 | 38.12154 | 20.49920 | 63 ft | 25 kts | 326° |
| 2026-05-07 18:41 | 38.12311 | 20.49789 | 59 ft | 25 kts | 326° |
| 2026-05-07 18:42 | 38.12397 | 20.49715 | 56 ft | 22 kts | 326° |
| 2026-05-07 18:42 | 38.12575 | 20.49565 | 52 ft | 20 kts | 327° |
| 2026-05-07 18:42 | 38.12705 | 20.49456 | 45 ft | 22 kts | 327° |
| 2026-05-07 18:42 | 38.12789 | 20.49385 | 44 ft | 16 kts | 326° |
| 2026-05-07 18:43 | 38.12864 | 20.49340 | 41 ft | 8 kts | 4° |
| 2026-05-07 18:43 | 38.12906 | 20.49330 | 40 ft | 9 kts | 323° |
| 2026-05-07 18:43 | 38.12884 | 20.49279 | 40 ft | 9 kts | 169° |
| 2026-05-07 18:43 | 38.12838 | 20.49341 | 42 ft | 1 kts | 144° |
| 2026-05-07 18:44 | 38.12829 | 20.49349 | 42 ft | 6 kts | 144° |
| 2026-05-07 18:44 | 38.12496 | 20.49633 | 55 ft | 114 kts | 146° |
| 2026-05-07 18:44 | 38.11646 | 20.50345 | 597 ft | 155 kts | 146° |
| 2026-05-07 18:44 | 38.10742 | 20.51129 | 1576 ft | 161 kts | 145° |
| 2026-05-07 18:45 | 38.09748 | 20.52000 | 2377 ft | 188 kts | 146° |
| 2026-05-07 18:45 | 38.08632 | 20.52973 | 3139 ft | 200 kts | 146° |
| 2026-05-07 18:45 | 38.07471 | 20.53986 | 4115 ft | 205 kts | 147° |
| 2026-05-07 18:45 | 38.06281 | 20.55027 | 5170 ft | 210 kts | 147° |
| 2026-05-07 18:46 | 38.05062 | 20.56091 | 6224 ft | 215 kts | 149° |
| 2026-05-07 18:46 | 38.03820 | 20.57173 | 7246 ft | 219 kts | 149° |
| 2026-05-07 18:46 | 38.02549 | 20.58278 | 8278 ft | 223 kts | 150° |
| 2026-05-07 18:46 | 38.01252 | 20.59402 | 9322 ft | 228 kts | 151° |
| 2026-05-07 18:47 | 37.99927 | 20.60548 | 10326 ft | 233 kts | 152° |
| 2026-05-07 18:47 | 37.98567 | 20.61722 | 11250 ft | 240 kts | 152° |
| 2026-05-07 18:47 | 37.97156 | 20.62902 | 12132 ft | 247 kts | 157° |
| 2026-05-07 18:47 | 37.95472 | 20.63550 | 12657 ft | 263 kts | 181° |
| 2026-05-07 18:48 | 37.93617 | 20.63243 | 13124 ft | 279 kts | 204° |
| 2026-05-07 18:48 | 37.91947 | 20.61883 | 13547 ft | 298 kts | 228° |
| 2026-05-07 18:48 | 37.90867 | 20.59565 | 13890 ft | 320 kts | 253° |
| 2026-05-07 18:48 | 37.90793 | 20.56669 | 14284 ft | 343 kts | 281° |
| 2026-05-07 18:49 | 37.91884 | 20.53943 | 14959 ft | 360 kts | 307° |
| 2026-05-07 18:49 | 37.93921 | 20.52023 | 15742 ft | 375 kts | 331° |
| 2026-05-07 18:49 | 37.96459 | 20.51088 | 16551 ft | 386 kts | 347° |
| 2026-05-07 18:49 | 37.99154 | 20.50802 | 17368 ft | 393 kts | 355° |
| 2026-05-07 18:50 | 38.01914 | 20.50820 | 18180 ft | 398 kts | 357° |
| 2026-05-07 18:50 | 38.04700 | 20.50885 | 18909 ft | 401 kts | 356° |
| 2026-05-07 18:50 | 38.07494 | 20.50853 | 19626 ft | 403 kts | 354° |
| 2026-05-07 18:50 | 38.10304 | 20.50697 | 20365 ft | 405 kts | 353° |
| 2026-05-07 18:51 | 38.13153 | 20.50915 | 21058 ft | 414 kts | 2° |
| 2026-05-07 18:51 | 38.16012 | 20.51383 | 21739 ft | 416 kts | 2° |
| 2026-05-07 18:51 | 38.18891 | 20.51896 | 22393 ft | 420 kts | 3° |
| 2026-05-07 18:51 | 38.21792 | 20.52449 | 23031 ft | 423 kts | 3° |
| 2026-05-07 18:52 | 38.24720 | 20.53028 | 23662 ft | 427 kts | 3° |
| 2026-05-07 18:52 | 38.27659 | 20.53618 | 24189 ft | 430 kts | 3° |
| 2026-05-07 18:52 | 38.30620 | 20.54213 | 24681 ft | 432 kts | 3° |
| 2026-05-07 18:52 | 38.33601 | 20.54806 | 25184 ft | 435 kts | 2° |
| 2026-05-07 18:53 | 38.36598 | 20.55394 | 25692 ft | 437 kts | 2° |
| 2026-05-07 18:53 | 38.39614 | 20.55980 | 26209 ft | 440 kts | 2° |
| 2026-05-07 18:53 | 38.42652 | 20.56570 | 26724 ft | 443 kts | 2° |
| 2026-05-07 18:53 | 38.45712 | 20.57167 | 27202 ft | 446 kts | 1° |
| 2026-05-07 18:54 | 38.48783 | 20.57765 | 27650 ft | 448 kts | 1° |
| 2026-05-07 18:54 | 38.51874 | 20.58367 | 28108 ft | 451 kts | 1° |
| 2026-05-07 18:54 | 38.54985 | 20.58976 | 28554 ft | 453 kts | 1° |
| 2026-05-07 18:54 | 38.58116 | 20.59593 | 28989 ft | 456 kts | 1° |
| 2026-05-07 18:55 | 38.61259 | 20.60215 | 29415 ft | 459 kts | 1° |
| 2026-05-07 18:55 | 38.64425 | 20.60843 | 29851 ft | 461 kts | 0° |
| 2026-05-07 18:55 | 38.67603 | 20.61472 | 30225 ft | 463 kts | 0° |
| 2026-05-07 18:55 | 38.70789 | 20.62099 | 30582 ft | 465 kts | 0° |
| 2026-05-07 18:56 | 38.73991 | 20.62727 | 31075 ft | 464 kts | 0° |
| 2026-05-07 18:56 | 38.77176 | 20.63352 | 31593 ft | 462 kts | 0° |
| 2026-05-07 18:56 | 38.80355 | 20.63948 | 32115 ft | 458 kts | 357° |
| 2026-05-07 18:56 | 38.83485 | 20.64031 | 32625 ft | 445 kts | 347° |
| 2026-05-07 18:57 | 38.86504 | 20.63472 | 33155 ft | 433 kts | 338° |
| 2026-05-07 18:57 | 38.89336 | 20.62336 | 33707 ft | 421 kts | 330° |
| 2026-05-07 18:57 | 38.91927 | 20.60696 | 34241 ft | 411 kts | 322° |
| 2026-05-07 18:57 | 38.94247 | 20.58631 | 34745 ft | 402 kts | 315° |
| 2026-05-07 18:58 | 38.96447 | 20.56432 | 35302 ft | 399 kts | 316° |
| 2026-05-07 18:58 | 38.98634 | 20.54251 | 35880 ft | 396 kts | 316° |
| 2026-05-07 18:58 | 39.00801 | 20.52085 | 36459 ft | 392 kts | 316° |
| 2026-05-07 18:58 | 39.02946 | 20.49942 | 37029 ft | 389 kts | 316° |
| 2026-05-07 18:59 | 39.05069 | 20.47824 | 37589 ft | 386 kts | 316° |
| 2026-05-07 18:59 | 39.07184 | 20.45703 | 38011 ft | 384 kts | 316° |
| 2026-05-07 18:59 | 39.09271 | 20.43578 | 38087 ft | 381 kts | 315° |
| 2026-05-07 19:00 | 39.13395 | 20.39322 | 38088 ft | 379 kts | 315° |
| 2026-05-07 19:00 | 39.17503 | 20.35062 | 38089 ft | 379 kts | 315° |
| 2026-05-07 19:01 | 39.21614 | 20.30811 | 38094 ft | 379 kts | 315° |
| 2026-05-07 19:01 | 39.25736 | 20.26568 | 38089 ft | 379 kts | 315° |
| 2026-05-07 19:02 | 39.29858 | 20.22328 | 38088 ft | 379 kts | 315° |
| 2026-05-07 19:02 | 39.33969 | 20.18076 | 38092 ft | 379 kts | 315° |
| 2026-05-07 19:03 | 39.38076 | 20.13824 | 38086 ft | 378 kts | 315° |
| 2026-05-07 19:03 | 39.42176 | 20.09579 | 38087 ft | 377 kts | 314° |
| 2026-05-07 19:04 | 39.46059 | 20.05095 | 38085 ft | 372 kts | 308° |
| 2026-05-07 19:04 | 39.49681 | 20.00311 | 38085 ft | 372 kts | 308° |
| 2026-05-07 19:04 | 39.51483 | 19.97931 | 37939 ft | 369 kts | 308° |
| 2026-05-07 19:05 | 39.53275 | 19.95565 | 37597 ft | 368 kts | 308° |
| 2026-05-07 19:05 | 39.55072 | 19.93185 | 37280 ft | 369 kts | 308° |
| 2026-05-07 19:05 | 39.56864 | 19.90808 | 37043 ft | 367 kts | 308° |
| 2026-05-07 19:06 | 39.60470 | 19.86026 | 37084 ft | 375 kts | 308° |
| 2026-05-07 19:06 | 39.64082 | 19.81253 | 37901 ft | 365 kts | 308° |
| 2026-05-07 19:06 | 39.65866 | 19.78890 | 38066 ft | 368 kts | 307° |
| 2026-05-07 19:07 | 39.69432 | 19.74150 | 38082 ft | 366 kts | 307° |
| 2026-05-07 19:07 | 39.73015 | 19.69374 | 38089 ft | 366 kts | 307° |
| 2026-05-07 19:08 | 39.76574 | 19.64634 | 38085 ft | 366 kts | 307° |
| 2026-05-07 19:08 | 39.80105 | 19.59909 | 38079 ft | 366 kts | 307° |
| 2026-05-07 19:09 | 39.83658 | 19.55156 | 38081 ft | 366 kts | 307° |
| 2026-05-07 19:09 | 39.87210 | 19.50408 | 38077 ft | 366 kts | 307° |
| 2026-05-07 19:10 | 39.90783 | 19.45613 | 38094 ft | 366 kts | 306° |
| 2026-05-07 19:10 | 39.94327 | 19.40838 | 38074 ft | 367 kts | 306° |
| 2026-05-07 19:11 | 39.97877 | 19.36065 | 38071 ft | 367 kts | 306° |
| 2026-05-07 19:11 | 40.01406 | 19.31309 | 38070 ft | 367 kts | 306° |
| 2026-05-07 19:12 | 40.04972 | 19.26488 | 38070 ft | 367 kts | 306° |
| 2026-05-07 19:12 | 40.08514 | 19.21699 | 38064 ft | 367 kts | 306° |
| 2026-05-07 19:13 | 40.12060 | 19.16901 | 38066 ft | 367 kts | 306° |
| 2026-05-07 19:13 | 40.15592 | 19.12102 | 38066 ft | 367 kts | 306° |
| 2026-05-07 19:14 | 40.19117 | 19.07300 | 38068 ft | 365 kts | 305° |
| 2026-05-07 19:14 | 40.22653 | 19.02540 | 38059 ft | 368 kts | 308° |
| 2026-05-07 19:15 | 40.24702 | 19.00464 | 38060 ft | 379 kts | 316° |
| 2026-05-07 19:15 | 40.27075 | 18.98812 | 38061 ft | 393 kts | 325° |
| 2026-05-07 19:15 | 40.32284 | 18.96361 | 38054 ft | 399 kts | 328° |
| 2026-05-07 19:16 | 40.37510 | 18.93936 | 38065 ft | 399 kts | 328° |
| 2026-05-07 19:16 | 40.42735 | 18.91500 | 38068 ft | 398 kts | 328° |
| 2026-05-07 19:17 | 40.47955 | 18.89060 | 38063 ft | 398 kts | 328° |
| 2026-05-07 19:17 | 40.53175 | 18.86617 | 38062 ft | 398 kts | 328° |
| 2026-05-07 19:18 | 40.58398 | 18.84172 | 38059 ft | 398 kts | 328° |
| 2026-05-07 19:18 | 40.63615 | 18.81717 | 38059 ft | 398 kts | 327° |
| 2026-05-07 19:19 | 40.67947 | 18.79664 | 38066 ft | 399 kts | 327° |
| 2026-05-07 19:19 | 40.73177 | 18.77199 | 38078 ft | 400 kts | 327° |
| 2026-05-07 19:20 | 40.78431 | 18.74730 | 38063 ft | 401 kts | 327° |
| 2026-05-07 19:20 | 40.83688 | 18.72249 | 38058 ft | 401 kts | 327° |
| 2026-05-07 19:21 | 40.88945 | 18.69764 | 38053 ft | 402 kts | 327° |
| 2026-05-07 19:21 | 40.94209 | 18.67262 | 38060 ft | 402 kts | 327° |
| 2026-05-07 19:22 | 40.99470 | 18.64750 | 38060 ft | 402 kts | 327° |
| 2026-05-07 19:22 | 41.04745 | 18.62251 | 38060 ft | 402 kts | 327° |
| 2026-05-07 19:23 | 41.10013 | 18.59747 | 38070 ft | 402 kts | 326° |
| 2026-05-07 19:23 | 41.15283 | 18.57222 | 38057 ft | 403 kts | 326° |
| 2026-05-07 19:24 | 41.20550 | 18.54690 | 38060 ft | 403 kts | 326° |
| 2026-05-07 19:24 | 41.25825 | 18.52171 | 38060 ft | 403 kts | 326° |
| 2026-05-07 19:25 | 41.31098 | 18.49642 | 38062 ft | 403 kts | 326° |
| 2026-05-07 19:25 | 41.36377 | 18.47108 | 38062 ft | 403 kts | 326° |
| 2026-05-07 19:26 | 41.41647 | 18.44568 | 38059 ft | 403 kts | 326° |
| 2026-05-07 19:26 | 41.46922 | 18.42017 | 38066 ft | 404 kts | 326° |
| 2026-05-07 19:27 | 41.52220 | 18.39448 | 38064 ft | 406 kts | 326° |
| 2026-05-07 19:27 | 41.57536 | 18.36877 | 38060 ft | 407 kts | 326° |
| 2026-05-07 19:28 | 41.62856 | 18.34310 | 38062 ft | 407 kts | 326° |
| 2026-05-07 19:28 | 41.65518 | 18.33018 | 37831 ft | 407 kts | 326° |
| 2026-05-07 19:28 | 41.68178 | 18.31723 | 37561 ft | 408 kts | 326° |
| 2026-05-07 19:29 | 41.70851 | 18.30417 | 37294 ft | 409 kts | 326° |
| 2026-05-07 19:29 | 41.73526 | 18.29107 | 36704 ft | 412 kts | 327° |
| 2026-05-07 19:29 | 41.76231 | 18.27776 | 35911 ft | 416 kts | 327° |
| 2026-05-07 19:29 | 41.78963 | 18.26432 | 35083 ft | 420 kts | 329° |
| 2026-05-07 19:30 | 41.81725 | 18.25078 | 34215 ft | 425 kts | 330° |
| 2026-05-07 19:30 | 41.84521 | 18.23707 | 33201 ft | 430 kts | 331° |
| 2026-05-07 19:30 | 41.87348 | 18.22324 | 32202 ft | 434 kts | 331° |
| 2026-05-07 19:30 | 41.90199 | 18.20935 | 31100 ft | 439 kts | 333° |
| 2026-05-07 19:31 | 41.93096 | 18.19502 | 29935 ft | 444 kts | 332° |
| 2026-05-07 19:31 | 41.95900 | 18.17776 | 28627 ft | 445 kts | 329° |
| 2026-05-07 19:31 | 41.98706 | 18.15984 | 27407 ft | 448 kts | 329° |
| 2026-05-07 19:31 | 42.01522 | 18.14186 | 26204 ft | 449 kts | 330° |
| 2026-05-07 19:32 | 42.04338 | 18.12389 | 25067 ft | 448 kts | 330° |
| 2026-05-07 19:32 | 42.07144 | 18.10604 | 24138 ft | 444 kts | 331° |
| 2026-05-07 19:32 | 42.09923 | 18.08833 | 23177 ft | 439 kts | 331° |
| 2026-05-07 19:32 | 42.12663 | 18.07079 | 22275 ft | 432 kts | 331° |
| 2026-05-07 19:33 | 42.15358 | 18.05351 | 21416 ft | 426 kts | 331° |
| 2026-05-07 19:33 | 42.18009 | 18.03645 | 20555 ft | 420 kts | 331° |
| 2026-05-07 19:33 | 42.20627 | 18.01956 | 19718 ft | 415 kts | 331° |
| 2026-05-07 19:33 | 42.23217 | 18.00286 | 18871 ft | 410 kts | 331° |
| 2026-05-07 19:34 | 42.25776 | 17.98637 | 18025 ft | 406 kts | 331° |
| 2026-05-07 19:34 | 42.28309 | 17.97005 | 17242 ft | 400 kts | 331° |
| 2026-05-07 19:34 | 42.30784 | 17.95410 | 16884 ft | 384 kts | 331° |
| 2026-05-07 19:34 | 42.33130 | 17.93901 | 16773 ft | 363 kts | 331° |
| 2026-05-07 19:35 | 42.35347 | 17.92475 | 16641 ft | 345 kts | 331° |
| 2026-05-07 19:35 | 42.37467 | 17.91108 | 16494 ft | 330 kts | 330° |
| 2026-05-07 19:35 | 42.39513 | 17.89784 | 16192 ft | 323 kts | 330° |
| 2026-05-07 19:35 | 42.41526 | 17.88475 | 15943 ft | 320 kts | 330° |
| 2026-05-07 19:36 | 42.43595 | 17.87349 | 15695 ft | 322 kts | 341° |
| 2026-05-07 19:36 | 42.45822 | 17.86952 | 15449 ft | 326 kts | 357° |
| 2026-05-07 19:36 | 42.48079 | 17.87376 | 15205 ft | 330 kts | 13° |
| 2026-05-07 19:36 | 42.50203 | 17.88597 | 14965 ft | 333 kts | 26° |
| 2026-05-07 19:37 | 42.52273 | 17.89967 | 14712 ft | 330 kts | 16° |
| 2026-05-07 19:37 | 42.54503 | 17.90355 | 14327 ft | 321 kts | 351° |
| 2026-05-07 19:37 | 42.56598 | 17.89507 | 13913 ft | 311 kts | 327° |
| 2026-05-07 19:37 | 42.58222 | 17.87686 | 13492 ft | 300 kts | 304° |
| 2026-05-07 19:38 | 42.59285 | 17.85292 | 13110 ft | 295 kts | 293° |
| 2026-05-07 19:38 | 42.60228 | 17.82871 | 12927 ft | 285 kts | 294° |
| 2026-05-07 19:38 | 42.61152 | 17.80510 | 12614 ft | 282 kts | 294° |
| 2026-05-07 19:38 | 42.62068 | 17.78172 | 12256 ft | 280 kts | 294° |
| 2026-05-07 19:39 | 42.62978 | 17.75851 | 11995 ft | 275 kts | 294° |
| 2026-05-07 19:39 | 42.63863 | 17.73595 | 11889 ft | 266 kts | 294° |
| 2026-05-07 19:39 | 42.64719 | 17.71408 | 11760 ft | 258 kts | 294° |
| 2026-05-07 19:39 | 42.65636 | 17.69335 | 11549 ft | 258 kts | 305° |
| 2026-05-07 19:40 | 42.67044 | 17.67803 | 11279 ft | 265 kts | 329° |
| 2026-05-07 19:40 | 42.68839 | 17.67162 | 11002 ft | 272 kts | 355° |
| 2026-05-07 19:40 | 42.70715 | 17.67600 | 10721 ft | 277 kts | 21° |
| 2026-05-07 19:40 | 42.72437 | 17.68790 | 10445 ft | 278 kts | 27° |
| 2026-05-07 19:41 | 42.74129 | 17.70087 | 10146 ft | 279 kts | 36° |
| 2026-05-07 19:41 | 42.75379 | 17.72006 | 10008 ft | 270 kts | 64° |
| 2026-05-07 19:41 | 42.75926 | 17.74368 | 9885 ft | 256 kts | 90° |
| 2026-05-07 19:41 | 42.75757 | 17.76694 | 9751 ft | 240 kts | 113° |
| 2026-05-07 19:42 | 42.75073 | 17.78747 | 9241 ft | 244 kts | 123° |
| 2026-05-07 19:42 | 42.74245 | 17.80808 | 8566 ft | 252 kts | 124° |
| 2026-05-07 19:42 | 42.73395 | 17.82934 | 7884 ft | 260 kts | 123° |
| 2026-05-07 19:42 | 42.72538 | 17.85125 | 7199 ft | 265 kts | 122° |
| 2026-05-07 19:43 | 42.71674 | 17.87345 | 6610 ft | 265 kts | 121° |
| 2026-05-07 19:43 | 42.70824 | 17.89525 | 6218 ft | 256 kts | 121° |
| 2026-05-07 19:43 | 42.70003 | 17.91624 | 5877 ft | 247 kts | 121° |
| 2026-05-07 19:43 | 42.69210 | 17.93648 | 5552 ft | 238 kts | 121° |
| 2026-05-07 19:44 | 42.68442 | 17.95606 | 5245 ft | 230 kts | 121° |
| 2026-05-07 19:44 | 42.67702 | 17.97493 | 4948 ft | 223 kts | 121° |
| 2026-05-07 19:44 | 42.66983 | 17.99326 | 4655 ft | 216 kts | 121° |
| 2026-05-07 19:44 | 42.66286 | 18.01100 | 4359 ft | 209 kts | 121° |
| 2026-05-07 19:45 | 42.65612 | 18.02814 | 4096 ft | 202 kts | 121° |
| 2026-05-07 19:45 | 42.64960 | 18.04473 | 3833 ft | 196 kts | 121° |
| 2026-05-07 19:45 | 42.64330 | 18.06076 | 3575 ft | 188 kts | 121° |
| 2026-05-07 19:45 | 42.63725 | 18.07612 | 3340 ft | 181 kts | 121° |
| 2026-05-07 19:46 | 42.63144 | 18.09086 | 3110 ft | 173 kts | 121° |
| 2026-05-07 19:46 | 42.62591 | 18.10491 | 2879 ft | 166 kts | 120° |
| 2026-05-07 19:46 | 42.62066 | 18.11822 | 2660 ft | 154 kts | 120° |
| 2026-05-07 19:46 | 42.61571 | 18.13077 | 2468 ft | 147 kts | 120° |
| 2026-05-07 19:47 | 42.61099 | 18.14272 | 2278 ft | 142 kts | 119° |
| 2026-05-07 19:47 | 42.60642 | 18.15431 | 2095 ft | 139 kts | 119° |
| 2026-05-07 19:47 | 42.60194 | 18.16563 | 1920 ft | 130 kts | 118° |
| 2026-05-07 19:47 | 42.59782 | 18.17606 | 1738 ft | 121 kts | 118° |
| 2026-05-07 19:48 | 42.59391 | 18.18597 | 1582 ft | 118 kts | 118° |
| 2026-05-07 19:48 | 42.59002 | 18.19581 | 1430 ft | 118 kts | 117° |
| 2026-05-07 19:48 | 42.58614 | 18.20548 | 1284 ft | 117 kts | 117° |
| 2026-05-07 19:48 | 42.58248 | 18.21535 | 1101 ft | 117 kts | 114° |
| 2026-05-07 19:49 | 42.57854 | 18.22504 | 990 ft | 117 kts | 116° |
| 2026-05-07 19:49 | 42.57462 | 18.23465 | 820 ft | 116 kts | 116° |
| 2026-05-07 19:49 | 42.57086 | 18.24422 | 647 ft | 113 kts | 116° |
| 2026-05-07 19:49 | 42.56727 | 18.25333 | 536 ft | 99 kts | 115° |
| 2026-05-07 19:50 | 42.56425 | 18.26101 | 534 ft | 89 kts | 118° |
| 2026-05-07 19:50 | 42.56256 | 18.26521 | 533 ft | 23 kts | 117° |
| 2026-05-07 19:50 | 42.56194 | 18.26632 | 534 ft | 12 kts | 161° |
| 2026-05-07 19:50 | 42.56150 | 18.26602 | 534 ft | 2 kts | 237° |
| 2026-05-07 19:51 | 42.56145 | 18.26591 | 534 ft | 0 kts | 240° |
| 2026-05-07 19:51 | 42.56141 | 18.26581 | 534 ft | 4 kts | 241° |
| 2026-05-07 19:51 | 42.56122 | 18.26532 | 534 ft | 8 kts | 242° |
| 2026-05-07 19:52 | 42.56107 | 18.26494 | 534 ft | 6 kts | 244° |
| 2026-05-07 19:52 | 42.56109 | 18.26425 | 534 ft | 9 kts | 293° |
| 2026-05-07 19:52 | 42.56131 | 18.26367 | 534 ft | 5 kts | 298° |
| 2026-05-07 19:52 | 42.56130 | 18.26336 | 534 ft | 2 kts | 234° |
| 2026-05-07 19:53 | 42.56112 | 18.26320 | 534 ft | 3 kts | 210° |
| 2026-05-07 19:53 | 42.56093 | 18.26306 | 534 ft | 3 kts | 208° |
| 2026-05-07 19:53 | 42.56085 | 18.26300 | 534 ft | 0 kts | 208° |